sensor_id;sensor_type;location;lat;lon;timestamp;P1;durP1;ratioP1;P2;durP2;ratioP2
22254;SDS011;11296;42.684;23.322;2023-03-14T00:02:13;14.77;;;8.00;;
22254;SDS011;11296;42.684;23.322;2023-03-14T00:04:38;10.17;;;5.93;;
22254;SDS011;11296;42.684;23.322;2023-03-14T00:07:04;9.13;;;5.80;;
22254;SDS011;11296;42.684;23.322;2023-03-14T00:09:30;8.57;;;6.07;;
22254;SDS011;11296;42.684;23.322;2023-03-14T00:11:56;7.83;;;5.07;;
22254;SDS011;11296;42.684;23.322;2023-03-14T00:14:22;9.53;;;5.20;;
22254;SDS011;11296;42.684;23.322;2023-03-14T00:16:48;9.50;;;5.47;;
22254;SDS011;11296;42.684;23.322;2023-03-14T00:19:14;8.00;;;5.13;;
22254;SDS011;11296;42.684;23.322;2023-03-14T00:21:41;7.70;;;5.07;;
22254;SDS011;11296;42.684;23.322;2023-03-14T00:24:07;7.83;;;5.07;;
22254;SDS011;11296;42.684;23.322;2023-03-14T00:26:33;9.07;;;5.53;;
22254;SDS011;11296;42.684;23.322;2023-03-14T00:28:59;10.07;;;5.30;;
22254;SDS011;11296;42.684;23.322;2023-03-14T00:31:24;8.17;;;5.10;;
22254;SDS011;11296;42.684;23.322;2023-03-14T00:33:51;7.77;;;5.60;;
22254;SDS011;11296;42.684;23.322;2023-03-14T00:36:18;7.47;;;4.93;;
22254;SDS011;11296;42.684;23.322;2023-03-14T00:38:46;7.97;;;5.03;;
22254;SDS011;11296;42.684;23.322;2023-03-14T00:41:14;7.93;;;5.37;;
22254;SDS011;11296;42.684;23.322;2023-03-14T00:43:42;8.63;;;5.30;;
22254;SDS011;11296;42.684;23.322;2023-03-14T00:46:08;7.73;;;5.30;;
22254;SDS011;11296;42.684;23.322;2023-03-14T00:48:34;8.27;;;4.80;;
22254;SDS011;11296;42.684;23.322;2023-03-14T00:51:01;6.80;;;5.07;;
22254;SDS011;11296;42.684;23.322;2023-03-14T00:53:28;8.37;;;5.17;;
22254;SDS011;11296;42.684;23.322;2023-03-14T00:55:53;7.23;;;5.00;;
22254;SDS011;11296;42.684;23.322;2023-03-14T00:58:37;8.33;;;5.20;;
22254;SDS011;11296;42.684;23.322;2023-03-14T01:01:07;10.80;;;6.40;;
22254;SDS011;11296;42.684;23.322;2023-03-14T01:03:35;8.27;;;5.30;;
22254;SDS011;11296;42.684;23.322;2023-03-14T01:06:08;10.00;;;6.30;;
22254;SDS011;11296;42.684;23.322;2023-03-14T01:08:38;13.13;;;7.43;;
22254;SDS011;11296;42.684;23.322;2023-03-14T01:11:05;9.47;;;6.40;;
22254;SDS011;11296;42.684;23.322;2023-03-14T01:13:33;11.20;;;7.20;;
22254;SDS011;11296;42.684;23.322;2023-03-14T01:16:02;11.17;;;6.50;;
22254;SDS011;11296;42.684;23.322;2023-03-14T01:18:30;13.03;;;8.50;;
22254;SDS011;11296;42.684;23.322;2023-03-14T01:20:56;13.53;;;7.83;;
22254;SDS011;11296;42.684;23.322;2023-03-14T01:23:22;13.77;;;7.50;;
22254;SDS011;11296;42.684;23.322;2023-03-14T01:25:48;12.07;;;7.50;;
22254;SDS011;11296;42.684;23.322;2023-03-14T01:28:15;14.90;;;9.53;;
22254;SDS011;11296;42.684;23.322;2023-03-14T01:30:41;17.40;;;10.00;;
22254;SDS011;11296;42.684;23.322;2023-03-14T01:33:08;16.37;;;10.03;;
22254;SDS011;11296;42.684;23.322;2023-03-14T01:35:34;18.23;;;9.87;;
22254;SDS011;11296;42.684;23.322;2023-03-14T01:38:00;19.70;;;11.67;;
22254;SDS011;11296;42.684;23.322;2023-03-14T01:40:26;19.50;;;10.60;;
22254;SDS011;11296;42.684;23.322;2023-03-14T01:42:55;24.17;;;12.20;;
22254;SDS011;11296;42.684;23.322;2023-03-14T01:51:08;21.50;;;12.00;;
22254;SDS011;11296;42.684;23.322;2023-03-14T01:53:38;22.30;;;12.40;;
22254;SDS011;11296;42.684;23.322;2023-03-14T01:56:09;21.67;;;11.90;;
22254;SDS011;11296;42.684;23.322;2023-03-14T01:58:37;21.97;;;12.10;;
22254;SDS011;11296;42.684;23.322;2023-03-14T02:01:06;19.43;;;11.47;;
22254;SDS011;11296;42.684;23.322;2023-03-14T02:03:36;18.40;;;11.47;;
22254;SDS011;11296;42.684;23.322;2023-03-14T02:06:12;17.70;;;10.90;;
22254;SDS011;11296;42.684;23.322;2023-03-14T02:08:40;20.43;;;11.53;;
22254;SDS011;11296;42.684;23.322;2023-03-14T02:11:12;22.33;;;12.37;;
22254;SDS011;11296;42.684;23.322;2023-03-14T02:13:48;21.07;;;12.33;;
22254;SDS011;11296;42.684;23.322;2023-03-14T02:16:47;20.87;;;12.30;;
22254;SDS011;11296;42.684;23.322;2023-03-14T02:19:26;21.03;;;11.77;;
22254;SDS011;11296;42.684;23.322;2023-03-14T02:22:16;20.30;;;12.10;;
22254;SDS011;11296;42.684;23.322;2023-03-14T02:27:49;23.67;;;12.63;;
22254;SDS011;11296;42.684;23.322;2023-03-14T02:30:17;21.70;;;12.40;;
22254;SDS011;11296;42.684;23.322;2023-03-14T02:32:46;21.53;;;12.80;;
22254;SDS011;11296;42.684;23.322;2023-03-14T02:35:18;20.77;;;12.33;;
22254;SDS011;11296;42.684;23.322;2023-03-14T02:37:52;21.00;;;12.37;;
22254;SDS011;11296;42.684;23.322;2023-03-14T02:40:25;19.70;;;12.77;;
22254;SDS011;11296;42.684;23.322;2023-03-14T02:42:51;23.60;;;12.43;;
22254;SDS011;11296;42.684;23.322;2023-03-14T02:47:46;21.47;;;12.87;;
22254;SDS011;11296;42.684;23.322;2023-03-14T02:50:23;20.67;;;12.20;;
22254;SDS011;11296;42.684;23.322;2023-03-14T02:52:53;20.17;;;12.00;;
22254;SDS011;11296;42.684;23.322;2023-03-14T02:55:21;20.43;;;11.80;;
22254;SDS011;11296;42.684;23.322;2023-03-14T02:57:49;19.20;;;11.33;;
22254;SDS011;11296;42.684;23.322;2023-03-14T03:00:16;21.50;;;12.17;;
22254;SDS011;11296;42.684;23.322;2023-03-14T03:02:42;22.70;;;12.80;;
22254;SDS011;11296;42.684;23.322;2023-03-14T03:05:08;24.03;;;12.33;;
22254;SDS011;11296;42.684;23.322;2023-03-14T03:07:34;19.43;;;12.40;;
22254;SDS011;11296;42.684;23.322;2023-03-14T03:09:59;20.57;;;12.07;;
22254;SDS011;11296;42.684;23.322;2023-03-14T03:12:25;17.33;;;11.30;;
22254;SDS011;11296;42.684;23.322;2023-03-14T03:14:51;19.50;;;11.73;;
22254;SDS011;11296;42.684;23.322;2023-03-14T03:17:17;19.57;;;11.13;;
22254;SDS011;11296;42.684;23.322;2023-03-14T03:19:43;19.77;;;12.13;;
22254;SDS011;11296;42.684;23.322;2023-03-14T03:22:09;20.73;;;11.37;;
22254;SDS011;11296;42.684;23.322;2023-03-14T03:24:35;24.50;;;12.87;;
22254;SDS011;11296;42.684;23.322;2023-03-14T03:27:02;21.70;;;12.93;;
22254;SDS011;11296;42.684;23.322;2023-03-14T03:29:29;19.40;;;12.47;;
22254;SDS011;11296;42.684;23.322;2023-03-14T03:31:55;22.57;;;12.93;;
22254;SDS011;11296;42.684;23.322;2023-03-14T03:34:21;22.07;;;12.23;;
22254;SDS011;11296;42.684;23.322;2023-03-14T03:36:50;19.83;;;12.83;;
22254;SDS011;11296;42.684;23.322;2023-03-14T03:39:15;24.53;;;13.47;;
22254;SDS011;11296;42.684;23.322;2023-03-14T03:41:41;21.30;;;12.63;;
22254;SDS011;11296;42.684;23.322;2023-03-14T03:44:07;22.87;;;13.33;;
22254;SDS011;11296;42.684;23.322;2023-03-14T03:46:33;22.53;;;13.33;;
22254;SDS011;11296;42.684;23.322;2023-03-14T03:48:59;23.43;;;13.80;;
22254;SDS011;11296;42.684;23.322;2023-03-14T03:51:47;26.43;;;13.60;;
22254;SDS011;11296;42.684;23.322;2023-03-14T03:54:54;21.47;;;12.43;;
22254;SDS011;11296;42.684;23.322;2023-03-14T03:57:20;19.33;;;12.67;;
22254;SDS011;11296;42.684;23.322;2023-03-14T03:59:46;19.93;;;12.03;;
22254;SDS011;11296;42.684;23.322;2023-03-14T04:02:13;22.83;;;13.20;;
22254;SDS011;11296;42.684;23.322;2023-03-14T04:04:39;23.20;;;13.03;;
22254;SDS011;11296;42.684;23.322;2023-03-14T04:07:06;23.50;;;12.93;;
22254;SDS011;11296;42.684;23.322;2023-03-14T04:09:31;18.40;;;11.50;;
22254;SDS011;11296;42.684;23.322;2023-03-14T04:12:16;19.40;;;11.90;;
22254;SDS011;11296;42.684;23.322;2023-03-14T04:14:58;18.93;;;12.17;;
22254;SDS011;11296;42.684;23.322;2023-03-14T04:17:24;21.60;;;12.90;;
22254;SDS011;11296;42.684;23.322;2023-03-14T04:19:50;20.90;;;12.50;;
22254;SDS011;11296;42.684;23.322;2023-03-14T04:22:20;24.40;;;13.20;;
22254;SDS011;11296;42.684;23.322;2023-03-14T04:24:49;22.43;;;12.17;;
22254;SDS011;11296;42.684;23.322;2023-03-14T04:27:14;20.93;;;12.10;;
22254;SDS011;11296;42.684;23.322;2023-03-14T04:29:43;22.60;;;12.70;;
22254;SDS011;11296;42.684;23.322;2023-03-14T04:32:57;24.07;;;12.73;;
22254;SDS011;11296;42.684;23.322;2023-03-14T04:36:17;21.80;;;12.40;;
22254;SDS011;11296;42.684;23.322;2023-03-14T04:42:08;24.93;;;13.07;;
22254;SDS011;11296;42.684;23.322;2023-03-14T04:44:36;20.90;;;12.97;;
22254;SDS011;11296;42.684;23.322;2023-03-14T04:47:02;19.43;;;12.40;;
22254;SDS011;11296;42.684;23.322;2023-03-14T04:49:27;22.80;;;13.30;;
22254;SDS011;11296;42.684;23.322;2023-03-14T04:51:53;24.50;;;13.47;;
22254;SDS011;11296;42.684;23.322;2023-03-14T04:54:21;23.23;;;14.03;;
22254;SDS011;11296;42.684;23.322;2023-03-14T04:56:55;20.67;;;12.33;;
22254;SDS011;11296;42.684;23.322;2023-03-14T04:59:21;18.23;;;11.70;;
22254;SDS011;11296;42.684;23.322;2023-03-14T05:01:48;24.63;;;14.53;;
22254;SDS011;11296;42.684;23.322;2023-03-14T05:04:39;27.50;;;12.87;;
22254;SDS011;11296;42.684;23.322;2023-03-14T05:07:23;21.37;;;12.27;;
22254;SDS011;11296;42.684;23.322;2023-03-14T05:10:06;23.70;;;12.83;;
22254;SDS011;11296;42.684;23.322;2023-03-14T05:12:48;25.27;;;13.43;;
22254;SDS011;11296;42.684;23.322;2023-03-14T05:15:52;23.77;;;12.17;;
22254;SDS011;11296;42.684;23.322;2023-03-14T05:18:38;26.30;;;13.37;;
22254;SDS011;11296;42.684;23.322;2023-03-14T05:21:10;26.60;;;13.53;;
22254;SDS011;11296;42.684;23.322;2023-03-14T05:24:08;24.97;;;13.23;;
22254;SDS011;11296;42.684;23.322;2023-03-14T05:26:52;26.43;;;13.73;;
22254;SDS011;11296;42.684;23.322;2023-03-14T05:29:28;19.50;;;11.37;;
22254;SDS011;11296;42.684;23.322;2023-03-14T05:32:20;21.57;;;11.47;;
22254;SDS011;11296;42.684;23.322;2023-03-14T05:35:16;19.53;;;11.23;;
22254;SDS011;11296;42.684;23.322;2023-03-14T05:38:09;26.20;;;12.17;;
22254;SDS011;11296;42.684;23.322;2023-03-14T05:41:07;24.07;;;13.67;;
22254;SDS011;11296;42.684;23.322;2023-03-14T05:43:52;23.50;;;14.00;;
22254;SDS011;11296;42.684;23.322;2023-03-14T05:46:36;20.90;;;12.90;;
22254;SDS011;11296;42.684;23.322;2023-03-14T05:49:20;20.73;;;12.87;;
22254;SDS011;11296;42.684;23.322;2023-03-14T05:51:57;21.20;;;13.33;;
22254;SDS011;11296;42.684;23.322;2023-03-14T05:54:36;20.97;;;13.57;;
22254;SDS011;11296;42.684;23.322;2023-03-14T05:57:25;24.57;;;13.67;;
22254;SDS011;11296;42.684;23.322;2023-03-14T06:00:09;24.13;;;13.47;;
22254;SDS011;11296;42.684;23.322;2023-03-14T06:02:38;21.80;;;13.40;;
22254;SDS011;11296;42.684;23.322;2023-03-14T06:05:14;29.80;;;17.60;;
22254;SDS011;11296;42.684;23.322;2023-03-14T06:07:40;24.13;;;14.17;;
22254;SDS011;11296;42.684;23.322;2023-03-14T06:10:06;25.47;;;14.00;;
22254;SDS011;11296;42.684;23.322;2023-03-14T06:12:32;26.17;;;14.03;;
22254;SDS011;11296;42.684;23.322;2023-03-14T06:14:58;24.83;;;14.10;;
22254;SDS011;11296;42.684;23.322;2023-03-14T06:17:23;25.43;;;14.53;;
22254;SDS011;11296;42.684;23.322;2023-03-14T06:20:00;20.90;;;12.77;;
22254;SDS011;11296;42.684;23.322;2023-03-14T06:22:26;28.63;;;14.53;;
22254;SDS011;11296;42.684;23.322;2023-03-14T06:24:52;23.03;;;14.00;;
22254;SDS011;11296;42.684;23.322;2023-03-14T06:27:19;23.83;;;14.33;;
22254;SDS011;11296;42.684;23.322;2023-03-14T06:29:45;21.43;;;13.40;;
22254;SDS011;11296;42.684;23.322;2023-03-14T06:32:11;23.40;;;13.13;;
22254;SDS011;11296;42.684;23.322;2023-03-14T06:34:37;22.50;;;13.23;;
22254;SDS011;11296;42.684;23.322;2023-03-14T06:37:04;24.57;;;13.80;;
22254;SDS011;11296;42.684;23.322;2023-03-14T06:39:31;24.00;;;14.30;;
22254;SDS011;11296;42.684;23.322;2023-03-14T06:42:05;20.50;;;13.70;;
22254;SDS011;11296;42.684;23.322;2023-03-14T06:44:33;22.33;;;13.90;;
22254;SDS011;11296;42.684;23.322;2023-03-14T06:47:00;19.10;;;13.20;;
22254;SDS011;11296;42.684;23.322;2023-03-14T06:49:26;24.03;;;12.93;;
22254;SDS011;11296;42.684;23.322;2023-03-14T06:51:53;22.07;;;13.23;;
22254;SDS011;11296;42.684;23.322;2023-03-14T06:54:19;22.67;;;13.13;;
22254;SDS011;11296;42.684;23.322;2023-03-14T06:56:46;23.50;;;12.13;;
22254;SDS011;11296;42.684;23.322;2023-03-14T06:59:12;19.53;;;11.63;;
22254;SDS011;11296;42.684;23.322;2023-03-14T07:01:39;17.70;;;13.00;;
22254;SDS011;11296;42.684;23.322;2023-03-14T07:04:09;18.63;;;12.50;;
22254;SDS011;11296;42.684;23.322;2023-03-14T07:06:39;21.07;;;12.50;;
22254;SDS011;11296;42.684;23.322;2023-03-14T07:09:10;20.47;;;12.57;;
22254;SDS011;11296;42.684;23.322;2023-03-14T07:11:40;20.57;;;12.57;;
22254;SDS011;11296;42.684;23.322;2023-03-14T07:14:05;22.80;;;13.33;;
22254;SDS011;11296;42.684;23.322;2023-03-14T07:16:31;21.20;;;13.40;;
22254;SDS011;11296;42.684;23.322;2023-03-14T07:19:01;20.77;;;14.33;;
22254;SDS011;11296;42.684;23.322;2023-03-14T07:21:28;25.50;;;15.33;;
22254;SDS011;11296;42.684;23.322;2023-03-14T07:24:14;24.13;;;14.97;;
22254;SDS011;11296;42.684;23.322;2023-03-14T07:26:41;32.10;;;15.53;;
22254;SDS011;11296;42.684;23.322;2023-03-14T07:29:07;29.63;;;15.30;;
22254;SDS011;11296;42.684;23.322;2023-03-14T07:31:33;25.50;;;14.23;;
22254;SDS011;11296;42.684;23.322;2023-03-14T07:34:00;23.13;;;14.37;;
22254;SDS011;11296;42.684;23.322;2023-03-14T07:36:30;27.83;;;14.23;;
22254;SDS011;11296;42.684;23.322;2023-03-14T07:38:57;21.93;;;14.37;;
22254;SDS011;11296;42.684;23.322;2023-03-14T07:41:49;22.53;;;14.73;;
22254;SDS011;11296;42.684;23.322;2023-03-14T07:44:24;28.30;;;16.77;;
22254;SDS011;11296;42.684;23.322;2023-03-14T07:46:52;30.17;;;14.13;;
22254;SDS011;11296;42.684;23.322;2023-03-14T07:49:18;23.20;;;13.07;;
22254;SDS011;11296;42.684;23.322;2023-03-14T07:51:48;19.90;;;13.43;;
22254;SDS011;11296;42.684;23.322;2023-03-14T07:54:16;26.93;;;13.67;;
22254;SDS011;11296;42.684;23.322;2023-03-14T07:56:41;26.23;;;14.17;;
22254;SDS011;11296;42.684;23.322;2023-03-14T07:59:07;18.17;;;11.60;;
22254;SDS011;11296;42.684;23.322;2023-03-14T08:01:33;19.60;;;12.07;;
22254;SDS011;11296;42.684;23.322;2023-03-14T08:03:59;19.17;;;12.47;;
22254;SDS011;11296;42.684;23.322;2023-03-14T08:06:25;19.57;;;12.33;;
22254;SDS011;11296;42.684;23.322;2023-03-14T08:08:50;18.67;;;12.20;;
22254;SDS011;11296;42.684;23.322;2023-03-14T08:11:16;18.63;;;11.47;;
22254;SDS011;11296;42.684;23.322;2023-03-14T08:13:42;15.27;;;10.90;;
22254;SDS011;11296;42.684;23.322;2023-03-14T08:16:07;24.53;;;14.20;;
22254;SDS011;11296;42.684;23.322;2023-03-14T08:18:33;23.63;;;15.80;;
22254;SDS011;11296;42.684;23.322;2023-03-14T08:20:59;30.90;;;20.17;;
22254;SDS011;11296;42.684;23.322;2023-03-14T08:23:25;18.23;;;12.13;;
22254;SDS011;11296;42.684;23.322;2023-03-14T08:25:51;16.80;;;10.63;;
22254;SDS011;11296;42.684;23.322;2023-03-14T08:28:18;15.47;;;10.47;;
22254;SDS011;11296;42.684;23.322;2023-03-14T08:30:44;16.33;;;10.93;;
22254;SDS011;11296;42.684;23.322;2023-03-14T08:33:10;17.50;;;10.90;;
22254;SDS011;11296;42.684;23.322;2023-03-14T08:35:37;16.50;;;10.63;;
22254;SDS011;11296;42.684;23.322;2023-03-14T08:38:04;15.17;;;10.83;;
22254;SDS011;11296;42.684;23.322;2023-03-14T08:40:29;12.97;;;9.47;;
22254;SDS011;11296;42.684;23.322;2023-03-14T08:42:55;15.07;;;10.10;;
22254;SDS011;11296;42.684;23.322;2023-03-14T08:45:21;16.37;;;9.53;;
22254;SDS011;11296;42.684;23.322;2023-03-14T08:47:46;11.07;;;8.17;;
22254;SDS011;11296;42.684;23.322;2023-03-14T08:50:12;12.77;;;8.67;;
22254;SDS011;11296;42.684;23.322;2023-03-14T08:52:38;13.00;;;8.53;;
22254;SDS011;11296;42.684;23.322;2023-03-14T08:55:06;11.60;;;8.13;;
22254;SDS011;11296;42.684;23.322;2023-03-14T08:57:34;12.57;;;8.80;;
22254;SDS011;11296;42.684;23.322;2023-03-14T09:00:00;14.90;;;8.87;;
22254;SDS011;11296;42.684;23.322;2023-03-14T09:02:26;12.33;;;8.40;;
22254;SDS011;11296;42.684;23.322;2023-03-14T09:04:52;12.80;;;8.17;;
22254;SDS011;11296;42.684;23.322;2023-03-14T09:07:19;13.00;;;9.30;;
22254;SDS011;11296;42.684;23.322;2023-03-14T09:09:45;12.10;;;8.03;;
22254;SDS011;11296;42.684;23.322;2023-03-14T09:12:10;10.17;;;7.17;;
22254;SDS011;11296;42.684;23.322;2023-03-14T09:14:36;13.07;;;8.30;;
22254;SDS011;11296;42.684;23.322;2023-03-14T09:17:03;12.60;;;8.83;;
22254;SDS011;11296;42.684;23.322;2023-03-14T09:19:29;11.40;;;8.40;;
22254;SDS011;11296;42.684;23.322;2023-03-14T09:21:55;13.60;;;9.03;;
22254;SDS011;11296;42.684;23.322;2023-03-14T09:24:21;13.40;;;7.67;;
22254;SDS011;11296;42.684;23.322;2023-03-14T09:26:47;10.13;;;7.23;;
22254;SDS011;11296;42.684;23.322;2023-03-14T09:29:12;10.13;;;7.77;;
22254;SDS011;11296;42.684;23.322;2023-03-14T09:31:39;9.37;;;7.17;;
22254;SDS011;11296;42.684;23.322;2023-03-14T09:34:04;10.63;;;7.07;;
22254;SDS011;11296;42.684;23.322;2023-03-14T09:36:30;9.90;;;7.60;;
22254;SDS011;11296;42.684;23.322;2023-03-14T09:38:57;10.00;;;6.93;;
22254;SDS011;11296;42.684;23.322;2023-03-14T09:44:05;11.70;;;7.40;;
22254;SDS011;11296;42.684;23.322;2023-03-14T09:46:38;9.93;;;6.83;;
22254;SDS011;11296;42.684;23.322;2023-03-14T09:49:13;9.37;;;6.40;;
22254;SDS011;11296;42.684;23.322;2023-03-14T09:51:46;9.73;;;6.90;;
22254;SDS011;11296;42.684;23.322;2023-03-14T09:57:02;10.17;;;6.47;;
22254;SDS011;11296;42.684;23.322;2023-03-14T09:59:30;8.50;;;6.30;;
22254;SDS011;11296;42.684;23.322;2023-03-14T10:02:02;9.80;;;6.30;;
22254;SDS011;11296;42.684;23.322;2023-03-14T10:04:39;8.03;;;5.50;;
22254;SDS011;11296;42.684;23.322;2023-03-14T10:07:19;6.60;;;5.73;;
22254;SDS011;11296;42.684;23.322;2023-03-14T10:09:51;6.27;;;5.20;;
22254;SDS011;11296;42.684;23.322;2023-03-14T10:12:18;7.50;;;5.30;;
22254;SDS011;11296;42.684;23.322;2023-03-14T10:14:49;9.53;;;5.70;;
22254;SDS011;11296;42.684;23.322;2023-03-14T10:17:17;8.00;;;6.40;;
22254;SDS011;11296;42.684;23.322;2023-03-14T10:19:55;8.93;;;5.83;;
22254;SDS011;11296;42.684;23.322;2023-03-14T10:22:26;10.23;;;5.77;;
22254;SDS011;11296;42.684;23.322;2023-03-14T10:24:56;8.53;;;5.50;;
22254;SDS011;11296;42.684;23.322;2023-03-14T10:27:29;7.53;;;6.17;;
22254;SDS011;11296;42.684;23.322;2023-03-14T10:29:59;8.43;;;6.87;;
22254;SDS011;11296;42.684;23.322;2023-03-14T10:32:28;9.03;;;6.87;;
22254;SDS011;11296;42.684;23.322;2023-03-14T10:40:30;8.87;;;7.03;;
22254;SDS011;11296;42.684;23.322;2023-03-14T10:43:01;9.53;;;7.57;;
22254;SDS011;11296;42.684;23.322;2023-03-14T10:45:34;10.67;;;7.43;;
22254;SDS011;11296;42.684;23.322;2023-03-14T10:48:22;11.33;;;7.50;;
22254;SDS011;11296;42.684;23.322;2023-03-14T10:50:55;7.17;;;6.20;;
22254;SDS011;11296;42.684;23.322;2023-03-14T10:53:23;13.40;;;6.70;;
22254;SDS011;11296;42.684;23.322;2023-03-14T10:55:50;8.83;;;6.13;;
22254;SDS011;11296;42.684;23.322;2023-03-14T10:58:18;9.87;;;6.23;;
22254;SDS011;11296;42.684;23.322;2023-03-14T11:00:54;8.03;;;5.73;;
22254;SDS011;11296;42.684;23.322;2023-03-14T11:03:47;7.17;;;5.63;;
22254;SDS011;11296;42.684;23.322;2023-03-14T11:06:25;10.20;;;5.83;;
22254;SDS011;11296;42.684;23.322;2023-03-14T11:11:31;5.32;;;4.20;;
22254;SDS011;11296;42.684;23.322;2023-03-14T11:17:02;6.07;;;4.45;;
22254;SDS011;11296;42.684;23.322;2023-03-14T11:30:34;5.75;;;3.67;;
22254;SDS011;11296;42.684;23.322;2023-03-14T11:33:14;3.47;;;3.03;;
22254;SDS011;11296;42.684;23.322;2023-03-14T11:38:32;5.30;;;3.80;;
22254;SDS011;11296;42.684;23.322;2023-03-14T11:41:00;4.70;;;4.03;;
22254;SDS011;11296;42.684;23.322;2023-03-14T11:45:52;8.13;;;4.10;;
22254;SDS011;11296;42.684;23.322;2023-03-14T11:50:52;5.93;;;4.00;;
22254;SDS011;11296;42.684;23.322;2023-03-14T11:53:35;4.75;;;3.72;;
22254;SDS011;11296;42.684;23.322;2023-03-14T11:56:11;4.40;;;2.88;;
22254;SDS011;11296;42.684;23.322;2023-03-14T11:58:48;4.43;;;3.53;;
22254;SDS011;11296;42.684;23.322;2023-03-14T12:01:47;11.57;;;3.47;;
22254;SDS011;11296;42.684;23.322;2023-03-14T12:04:22;6.47;;;3.47;;
22254;SDS011;11296;42.684;23.322;2023-03-14T12:07:08;6.05;;;3.67;;
22254;SDS011;11296;42.684;23.322;2023-03-14T12:09:45;4.03;;;3.38;;
22254;SDS011;11296;42.684;23.322;2023-03-14T12:12:26;3.25;;;2.90;;
22254;SDS011;11296;42.684;23.322;2023-03-14T12:15:02;4.28;;;3.40;;
22254;SDS011;11296;42.684;23.322;2023-03-14T12:17:41;3.80;;;3.20;;
22254;SDS011;11296;42.684;23.322;2023-03-14T12:20:18;4.00;;;2.80;;
22254;SDS011;11296;42.684;23.322;2023-03-14T12:22:55;4.28;;;3.45;;
22254;SDS011;11296;42.684;23.322;2023-03-14T12:25:33;4.07;;;3.30;;
22254;SDS011;11296;42.684;23.322;2023-03-14T12:28:16;5.25;;;2.80;;
22254;SDS011;11296;42.684;23.322;2023-03-14T12:30:47;3.42;;;2.90;;
22254;SDS011;11296;42.684;23.322;2023-03-14T12:33:28;4.20;;;2.80;;
22254;SDS011;11296;42.684;23.322;2023-03-14T12:35:59;2.88;;;2.67;;
22254;SDS011;11296;42.684;23.322;2023-03-14T12:41:05;4.07;;;2.70;;
22254;SDS011;11296;42.684;23.322;2023-03-14T12:43:47;4.05;;;2.40;;
22254;SDS011;11296;42.684;23.322;2023-03-14T12:48:46;2.42;;;2.13;;
22254;SDS011;11296;42.684;23.322;2023-03-14T12:51:15;3.07;;;2.53;;
22254;SDS011;11296;42.684;23.322;2023-03-14T12:54:14;2.30;;;2.10;;
22254;SDS011;11296;42.684;23.322;2023-03-14T12:59:34;4.00;;;2.75;;
22254;SDS011;11296;42.684;23.322;2023-03-14T13:02:22;7.20;;;2.20;;
22254;SDS011;11296;42.684;23.322;2023-03-14T13:12:47;4.47;;;2.40;;
22254;SDS011;11296;42.684;23.322;2023-03-14T13:15:17;3.88;;;2.42;;
22254;SDS011;11296;42.684;23.322;2023-03-14T13:17:46;3.28;;;2.33;;
22254;SDS011;11296;42.684;23.322;2023-03-14T13:20:19;2.58;;;2.13;;
22254;SDS011;11296;42.684;23.322;2023-03-14T13:23:03;2.13;;;1.92;;
22254;SDS011;11296;42.684;23.322;2023-03-14T13:25:29;2.35;;;2.15;;
22254;SDS011;11296;42.684;23.322;2023-03-14T13:27:57;3.38;;;2.45;;
22254;SDS011;11296;42.684;23.322;2023-03-14T13:30:28;2.25;;;1.83;;
22254;SDS011;11296;42.684;23.322;2023-03-14T13:33:06;2.63;;;2.13;;
22254;SDS011;11296;42.684;23.322;2023-03-14T13:38:29;2.25;;;2.05;;
22254;SDS011;11296;42.684;23.322;2023-03-14T13:41:00;3.10;;;2.20;;
22254;SDS011;11296;42.684;23.322;2023-03-14T13:43:33;3.85;;;2.30;;
22254;SDS011;11296;42.684;23.322;2023-03-14T13:46:12;2.65;;;2.13;;
22254;SDS011;11296;42.684;23.322;2023-03-14T13:48:55;3.42;;;2.40;;
22254;SDS011;11296;42.684;23.322;2023-03-14T13:51:23;2.72;;;2.20;;
22254;SDS011;11296;42.684;23.322;2023-03-14T13:53:53;2.58;;;1.95;;
22254;SDS011;11296;42.684;23.322;2023-03-14T13:56:22;2.42;;;1.75;;
22254;SDS011;11296;42.684;23.322;2023-03-14T13:58:53;2.10;;;1.90;;
22254;SDS011;11296;42.684;23.322;2023-03-14T14:01:23;3.20;;;1.95;;
22254;SDS011;11296;42.684;23.322;2023-03-14T14:03:50;4.80;;;1.95;;
22254;SDS011;11296;42.684;23.322;2023-03-14T14:06:26;2.30;;;2.08;;
22254;SDS011;11296;42.684;23.322;2023-03-14T14:15:02;4.63;;;2.05;;
22254;SDS011;11296;42.684;23.322;2023-03-14T14:17:15;2.35;;;2.10;;
22254;SDS011;11296;42.684;23.322;2023-03-14T14:19:54;5.68;;;2.20;;
22254;SDS011;11296;42.684;23.322;2023-03-14T14:22:21;5.03;;;2.20;;
22254;SDS011;11296;42.684;23.322;2023-03-14T14:24:49;3.88;;;2.40;;
22254;SDS011;11296;42.684;23.322;2023-03-14T14:27:27;2.20;;;2.00;;
22254;SDS011;11296;42.684;23.322;2023-03-14T14:30:05;5.20;;;2.10;;
22254;SDS011;11296;42.684;23.322;2023-03-14T14:32:50;4.65;;;2.10;;
22254;SDS011;11296;42.684;23.322;2023-03-14T14:35:26;2.92;;;2.10;;
22254;SDS011;11296;42.684;23.322;2023-03-14T14:37:59;3.92;;;2.72;;
22254;SDS011;11296;42.684;23.322;2023-03-14T14:40:27;3.05;;;2.60;;
22254;SDS011;11296;42.684;23.322;2023-03-14T14:43:03;2.83;;;2.20;;
22254;SDS011;11296;42.684;23.322;2023-03-14T14:45:32;2.50;;;2.00;;
22254;SDS011;11296;42.684;23.322;2023-03-14T14:48:09;3.97;;;2.40;;
22254;SDS011;11296;42.684;23.322;2023-03-14T14:50:38;3.30;;;1.88;;
22254;SDS011;11296;42.684;23.322;2023-03-14T14:56:15;4.87;;;2.20;;
22254;SDS011;11296;42.684;23.322;2023-03-14T14:58:45;5.60;;;2.17;;
22254;SDS011;11296;42.684;23.322;2023-03-14T15:01:14;5.53;;;2.40;;
22254;SDS011;11296;42.684;23.322;2023-03-14T15:03:43;4.23;;;2.07;;
22254;SDS011;11296;42.684;23.322;2023-03-14T15:06:11;4.17;;;2.03;;
22254;SDS011;11296;42.684;23.322;2023-03-14T15:08:39;4.23;;;2.30;;
22254;SDS011;11296;42.684;23.322;2023-03-14T15:11:24;2.87;;;2.27;;
22254;SDS011;11296;42.684;23.322;2023-03-14T15:13:51;4.03;;;2.20;;
22254;SDS011;11296;42.684;23.322;2023-03-14T15:16:25;3.20;;;2.30;;
22254;SDS011;11296;42.684;23.322;2023-03-14T15:18:54;4.43;;;2.00;;
22254;SDS011;11296;42.684;23.322;2023-03-14T15:21:22;5.80;;;2.20;;
22254;SDS011;11296;42.684;23.322;2023-03-14T15:23:50;3.97;;;2.17;;
22254;SDS011;11296;42.684;23.322;2023-03-14T15:26:20;3.13;;;2.30;;
22254;SDS011;11296;42.684;23.322;2023-03-14T15:28:49;3.67;;;2.20;;
22254;SDS011;11296;42.684;23.322;2023-03-14T15:31:16;4.27;;;2.70;;
22254;SDS011;11296;42.684;23.322;2023-03-14T15:33:45;3.70;;;2.67;;
22254;SDS011;11296;42.684;23.322;2023-03-14T15:38:50;3.80;;;2.27;;
22254;SDS011;11296;42.684;23.322;2023-03-14T15:41:18;5.10;;;2.40;;
22254;SDS011;11296;42.684;23.322;2023-03-14T15:43:45;3.57;;;1.80;;
22254;SDS011;11296;42.684;23.322;2023-03-14T15:46:11;3.33;;;2.00;;
22254;SDS011;11296;42.684;23.322;2023-03-14T15:48:38;3.37;;;2.13;;
22254;SDS011;11296;42.684;23.322;2023-03-14T15:51:04;3.23;;;2.10;;
22254;SDS011;11296;42.684;23.322;2023-03-14T15:53:30;4.00;;;2.00;;
22254;SDS011;11296;42.684;23.322;2023-03-14T15:55:55;2.60;;;2.00;;
22254;SDS011;11296;42.684;23.322;2023-03-14T15:58:21;3.73;;;2.07;;
22254;SDS011;11296;42.684;23.322;2023-03-14T16:00:48;4.23;;;2.53;;
22254;SDS011;11296;42.684;23.322;2023-03-14T16:03:15;4.77;;;2.30;;
22254;SDS011;11296;42.684;23.322;2023-03-14T16:05:40;3.63;;;2.23;;